Aérodrome :
LOGIN :

S'inscrire | Disclaimer

   EN    FR    IT 

 










Légende :    VFR   VFR Marginal   IFR   IFR Intensif   IFR Très Intensif
Visi : 
Plafond : 
>= 8 km
>= 3000ft
5 à 8 km
1000 à 3000 ft
1500m à 5 km
500 à 1000 ft
800 à 1500m
200 à 500 ft
< 800m
< 200 ft
Symboles :   Orages  Brouillard  Fortes neiges  Fortes précipitations  Vent > 20 kt
SIGMETs :   Divers  Orages  Givrage  Turbulence  Onde Orograph.  Cendres Volcan.







- Altitude de l'aérodrome : 100 ft
- Code IATA : DCI


LIED - Decimomannu Air Base

DERNIER METAR :
  • 251955Z 13011KT 9999 OVC015 17/16 Q1011 RMK OVC VIS MIN 9999 WIND THR35 13012KT WIND THR17 14012KT WHT

METARs EXPIRÉS :
  • 251855Z 13011KT 9999 BKN015 17/16 Q1011 RMK BKN VIS MIN 9999 WIND THR35 13014KT WIND THR17 14013KT WHT
  • 251755Z 13010KT 9999 BKN015 18/16 Q1011 RMK BKN VIS MIN 9999 WIND THR35 14014KT WIND THR17 14014KT WHT

TAF TAF LIED
Valide du 25 à 18h jusqu'au 26 à 03h UTC


251700Z 2518/2603 13012KT 9999 SCT025
Pas de NOTAMs connus pour ce terrain.



MET'MAP, la Météo Aéronautique d'un coup d'oeil ! - Copyright ORBIFLY Décembre 2007 - Disclaimer

ORBIFLY MET'MAP TEAM :

Programmation & Développement : Alexandra Zaïnal
Conception & Développement : Baudouin d'Aumeries
Co-Programmation & Développement : Marc-Olivier Méhu
Soutien technique & logistique : Manuel Goepfert

Contact : metmap@orbifly.com




SOURCES & CREDITS :

   NOAA